sensor_id;sensor_type;location;lat;lon;timestamp;temperature;humidity
3198;DHT22;1611;49.394;11.136;2024-01-07T00:01:48;5.80;65.80
3198;DHT22;1611;49.394;11.136;2024-01-07T00:04:15;5.70;65.60
3198;DHT22;1611;49.394;11.136;2024-01-07T00:06:43;5.70;66.30
3198;DHT22;1611;49.394;11.136;2024-01-07T00:09:10;5.70;65.90
3198;DHT22;1611;49.394;11.136;2024-01-07T00:11:37;5.70;66.00
3198;DHT22;1611;49.394;11.136;2024-01-07T00:14:04;5.70;65.80
3198;DHT22;1611;49.394;11.136;2024-01-07T00:16:31;5.60;65.50
3198;DHT22;1611;49.394;11.136;2024-01-07T00:18:57;5.60;66.10
3198;DHT22;1611;49.394;11.136;2024-01-07T00:21:24;5.60;66.20
3198;DHT22;1611;49.394;11.136;2024-01-07T00:23:52;5.60;66.20
3198;DHT22;1611;49.394;11.136;2024-01-07T00:26:19;5.60;66.30
3198;DHT22;1611;49.394;11.136;2024-01-07T00:28:46;5.60;66.20
3198;DHT22;1611;49.394;11.136;2024-01-07T00:31:13;5.60;66.30
3198;DHT22;1611;49.394;11.136;2024-01-07T00:33:39;5.60;66.00
3198;DHT22;1611;49.394;11.136;2024-01-07T00:36:06;5.60;65.70
3198;DHT22;1611;49.394;11.136;2024-01-07T00:38:33;5.50;66.10
3198;DHT22;1611;49.394;11.136;2024-01-07T00:41:01;5.50;66.40
3198;DHT22;1611;49.394;11.136;2024-01-07T00:43:28;5.50;66.50
3198;DHT22;1611;49.394;11.136;2024-01-07T00:45:54;5.50;66.20
3198;DHT22;1611;49.394;11.136;2024-01-07T00:48:21;5.50;66.60
3198;DHT22;1611;49.394;11.136;2024-01-07T00:50:48;5.50;66.30
3198;DHT22;1611;49.394;11.136;2024-01-07T00:53:14;5.40;66.40
3198;DHT22;1611;49.394;11.136;2024-01-07T00:55:41;5.40;66.10
3198;DHT22;1611;49.394;11.136;2024-01-07T00:58:09;5.30;66.60
3198;DHT22;1611;49.394;11.136;2024-01-07T01:00:36;5.40;66.80
3198;DHT22;1611;49.394;11.136;2024-01-07T01:03:03;5.40;66.30
3198;DHT22;1611;49.394;11.136;2024-01-07T01:05:29;5.40;66.80
3198;DHT22;1611;49.394;11.136;2024-01-07T01:07:56;5.40;66.50
3198;DHT22;1611;49.394;11.136;2024-01-07T01:10:22;5.40;66.30
3198;DHT22;1611;49.394;11.136;2024-01-07T01:12:48;5.30;66.50
3198;DHT22;1611;49.394;11.136;2024-01-07T01:15:19;5.40;66.60
3198;DHT22;1611;49.394;11.136;2024-01-07T01:17:45;5.40;66.90
3198;DHT22;1611;49.394;11.136;2024-01-07T01:20:12;5.40;66.60
3198;DHT22;1611;49.394;11.136;2024-01-07T01:22:39;5.30;66.30
3198;DHT22;1611;49.394;11.136;2024-01-07T01:25:06;5.30;66.60
3198;DHT22;1611;49.394;11.136;2024-01-07T01:27:33;5.40;66.20
3198;DHT22;1611;49.394;11.136;2024-01-07T01:30:00;5.40;66.10
3198;DHT22;1611;49.394;11.136;2024-01-07T01:32:28;5.50;66.20
3198;DHT22;1611;49.394;11.136;2024-01-07T01:34:54;5.50;66.10
3198;DHT22;1611;49.394;11.136;2024-01-07T01:37:21;5.40;65.70
3198;DHT22;1611;49.394;11.136;2024-01-07T01:39:48;5.50;65.90
3198;DHT22;1611;49.394;11.136;2024-01-07T01:42:14;5.50;65.20
3198;DHT22;1611;49.394;11.136;2024-01-07T01:44:41;5.50;65.20
3198;DHT22;1611;49.394;11.136;2024-01-07T01:47:10;5.50;65.70
3198;DHT22;1611;49.394;11.136;2024-01-07T01:49:39;5.50;65.40
3198;DHT22;1611;49.394;11.136;2024-01-07T01:52:06;5.60;65.20
3198;DHT22;1611;49.394;11.136;2024-01-07T01:54:33;5.50;65.30
3198;DHT22;1611;49.394;11.136;2024-01-07T01:56:59;5.60;65.30
3198;DHT22;1611;49.394;11.136;2024-01-07T01:59:28;5.60;64.90
3198;DHT22;1611;49.394;11.136;2024-01-07T02:01:55;5.50;65.00
3198;DHT22;1611;49.394;11.136;2024-01-07T02:04:22;5.50;65.00
3198;DHT22;1611;49.394;11.136;2024-01-07T02:06:50;5.60;64.60
3198;DHT22;1611;49.394;11.136;2024-01-07T02:09:17;5.60;64.80
3198;DHT22;1611;49.394;11.136;2024-01-07T02:11:43;5.50;64.60
3198;DHT22;1611;49.394;11.136;2024-01-07T02:14:26;5.40;65.00
3198;DHT22;1611;49.394;11.136;2024-01-07T02:16:52;5.40;64.90
3198;DHT22;1611;49.394;11.136;2024-01-07T02:19:20;5.50;65.00
3198;DHT22;1611;49.394;11.136;2024-01-07T02:21:50;5.40;65.40
3198;DHT22;1611;49.394;11.136;2024-01-07T02:24:18;5.40;65.50
3198;DHT22;1611;49.394;11.136;2024-01-07T02:26:45;5.30;65.40
3198;DHT22;1611;49.394;11.136;2024-01-07T02:29:12;5.40;65.40
3198;DHT22;1611;49.394;11.136;2024-01-07T02:31:38;5.30;64.80
3198;DHT22;1611;49.394;11.136;2024-01-07T02:34:05;5.30;65.90
3198;DHT22;1611;49.394;11.136;2024-01-07T02:36:32;5.20;65.50
3198;DHT22;1611;49.394;11.136;2024-01-07T02:38:59;5.20;64.50
3198;DHT22;1611;49.394;11.136;2024-01-07T02:41:27;5.10;64.60
3198;DHT22;1611;49.394;11.136;2024-01-07T02:43:53;5.20;63.90
3198;DHT22;1611;49.394;11.136;2024-01-07T02:46:20;5.10;63.40
3198;DHT22;1611;49.394;11.136;2024-01-07T02:48:47;5.20;63.70
3198;DHT22;1611;49.394;11.136;2024-01-07T02:51:14;5.20;63.20
3198;DHT22;1611;49.394;11.136;2024-01-07T02:53:41;5.20;63.30
3198;DHT22;1611;49.394;11.136;2024-01-07T02:56:07;5.20;63.20
3198;DHT22;1611;49.394;11.136;2024-01-07T02:58:36;5.10;62.70
3198;DHT22;1611;49.394;11.136;2024-01-07T03:01:07;5.10;63.60
3198;DHT22;1611;49.394;11.136;2024-01-07T03:03:34;5.10;62.80
3198;DHT22;1611;49.394;11.136;2024-01-07T03:06:01;5.10;62.80
3198;DHT22;1611;49.394;11.136;2024-01-07T03:08:28;5.10;62.50
3198;DHT22;1611;49.394;11.136;2024-01-07T03:10:54;5.20;62.50
3198;DHT22;1611;49.394;11.136;2024-01-07T03:13:21;5.10;60.80
3198;DHT22;1611;49.394;11.136;2024-01-07T03:15:49;5.10;60.80
3198;DHT22;1611;49.394;11.136;2024-01-07T03:18:16;5.00;60.80
3198;DHT22;1611;49.394;11.136;2024-01-07T03:20:42;5.10;60.20
3198;DHT22;1611;49.394;11.136;2024-01-07T03:23:09;5.00;59.90
3198;DHT22;1611;49.394;11.136;2024-01-07T03:25:36;5.00;59.70
3198;DHT22;1611;49.394;11.136;2024-01-07T03:28:03;4.90;59.50
3198;DHT22;1611;49.394;11.136;2024-01-07T03:30:30;4.90;60.10
3198;DHT22;1611;49.394;11.136;2024-01-07T03:32:58;4.90;60.10
3198;DHT22;1611;49.394;11.136;2024-01-07T03:35:24;4.90;60.30
3198;DHT22;1611;49.394;11.136;2024-01-07T03:37:51;4.90;59.90
3198;DHT22;1611;49.394;11.136;2024-01-07T03:40:18;4.90;59.70
3198;DHT22;1611;49.394;11.136;2024-01-07T03:42:45;4.90;59.80
3198;DHT22;1611;49.394;11.136;2024-01-07T03:45:11;4.90;59.90
3198;DHT22;1611;49.394;11.136;2024-01-07T03:47:38;4.90;59.10
3198;DHT22;1611;49.394;11.136;2024-01-07T03:50:07;4.90;59.60
3198;DHT22;1611;49.394;11.136;2024-01-07T03:52:33;4.90;59.70
3198;DHT22;1611;49.394;11.136;2024-01-07T03:55:01;4.90;59.50
3198;DHT22;1611;49.394;11.136;2024-01-07T03:57:27;4.90;59.20
3198;DHT22;1611;49.394;11.136;2024-01-07T03:59:54;4.90;59.00
3198;DHT22;1611;49.394;11.136;2024-01-07T04:02:21;4.90;59.30
3198;DHT22;1611;49.394;11.136;2024-01-07T04:04:47;5.00;59.60
3198;DHT22;1611;49.394;11.136;2024-01-07T04:07:15;5.00;59.80
3198;DHT22;1611;49.394;11.136;2024-01-07T04:09:43;4.90;59.80
3198;DHT22;1611;49.394;11.136;2024-01-07T04:12:09;4.90;60.20
3198;DHT22;1611;49.394;11.136;2024-01-07T04:14:36;4.80;60.30
3198;DHT22;1611;49.394;11.136;2024-01-07T04:17:03;4.70;59.80
3198;DHT22;1611;49.394;11.136;2024-01-07T04:19:30;4.70;59.60
3198;DHT22;1611;49.394;11.136;2024-01-07T04:21:57;4.70;58.90
3198;DHT22;1611;49.394;11.136;2024-01-07T04:24:25;4.60;58.00
3198;DHT22;1611;49.394;11.136;2024-01-07T04:26:52;4.50;58.30
3198;DHT22;1611;49.394;11.136;2024-01-07T04:29:19;4.50;58.80
3198;DHT22;1611;49.394;11.136;2024-01-07T04:31:45;4.50;58.60
3198;DHT22;1611;49.394;11.136;2024-01-07T04:34:12;4.50;58.80
3198;DHT22;1611;49.394;11.136;2024-01-07T04:36:39;4.60;58.40
3198;DHT22;1611;49.394;11.136;2024-01-07T04:39:05;4.60;57.60
3198;DHT22;1611;49.394;11.136;2024-01-07T04:41:34;4.60;58.10
3198;DHT22;1611;49.394;11.136;2024-01-07T04:44:01;4.60;57.30
3198;DHT22;1611;49.394;11.136;2024-01-07T04:46:28;4.50;57.50
3198;DHT22;1611;49.394;11.136;2024-01-07T04:48:55;4.50;57.40
3198;DHT22;1611;49.394;11.136;2024-01-07T04:51:22;4.50;57.90
3198;DHT22;1611;49.394;11.136;2024-01-07T04:53:48;4.40;57.20
3198;DHT22;1611;49.394;11.136;2024-01-07T04:56:15;4.30;57.30
3198;DHT22;1611;49.394;11.136;2024-01-07T04:58:43;4.20;57.50
3198;DHT22;1611;49.394;11.136;2024-01-07T05:01:10;4.30;58.00
3198;DHT22;1611;49.394;11.136;2024-01-07T05:03:37;4.30;57.80
3198;DHT22;1611;49.394;11.136;2024-01-07T05:06:04;4.30;57.80
3198;DHT22;1611;49.394;11.136;2024-01-07T05:08:30;4.40;57.00
3198;DHT22;1611;49.394;11.136;2024-01-07T05:10:57;4.40;56.70
3198;DHT22;1611;49.394;11.136;2024-01-07T05:13:24;4.40;56.70
3198;DHT22;1611;49.394;11.136;2024-01-07T05:15:52;4.30;56.80
3198;DHT22;1611;49.394;11.136;2024-01-07T05:18:20;4.40;55.50
3198;DHT22;1611;49.394;11.136;2024-01-07T05:20:47;4.30;55.60
3198;DHT22;1611;49.394;11.136;2024-01-07T05:23:14;4.30;55.90
3198;DHT22;1611;49.394;11.136;2024-01-07T05:25:42;4.30;55.60
3198;DHT22;1611;49.394;11.136;2024-01-07T05:28:09;4.30;55.70
3198;DHT22;1611;49.394;11.136;2024-01-07T05:30:36;4.20;55.80
3198;DHT22;1611;49.394;11.136;2024-01-07T05:33:04;4.10;55.60
3198;DHT22;1611;49.394;11.136;2024-01-07T05:35:31;4.10;56.50
3198;DHT22;1611;49.394;11.136;2024-01-07T05:37:58;4.10;56.50
3198;DHT22;1611;49.394;11.136;2024-01-07T05:40:25;4.20;55.30
3198;DHT22;1611;49.394;11.136;2024-01-07T05:42:51;4.20;55.50
3198;DHT22;1611;49.394;11.136;2024-01-07T05:45:18;4.20;55.20
3198;DHT22;1611;49.394;11.136;2024-01-07T05:47:45;4.10;55.30
3198;DHT22;1611;49.394;11.136;2024-01-07T05:50:14;4.20;55.70
3198;DHT22;1611;49.394;11.136;2024-01-07T05:52:41;4.10;55.40
3198;DHT22;1611;49.394;11.136;2024-01-07T05:55:09;4.20;55.20
3198;DHT22;1611;49.394;11.136;2024-01-07T05:57:36;4.00;54.60
3198;DHT22;1611;49.394;11.136;2024-01-07T06:00:04;4.00;55.30
3198;DHT22;1611;49.394;11.136;2024-01-07T06:02:31;3.90;55.90
3198;DHT22;1611;49.394;11.136;2024-01-07T06:04:57;3.90;55.90
3198;DHT22;1611;49.394;11.136;2024-01-07T06:07:25;3.90;55.40
3198;DHT22;1611;49.394;11.136;2024-01-07T06:09:52;3.80;55.60
3198;DHT22;1611;49.394;11.136;2024-01-07T06:12:19;3.80;55.80
3198;DHT22;1611;49.394;11.136;2024-01-07T06:14:45;3.80;55.30
3198;DHT22;1611;49.394;11.136;2024-01-07T06:17:12;3.90;55.80
3198;DHT22;1611;49.394;11.136;2024-01-07T06:19:39;3.90;55.40
3198;DHT22;1611;49.394;11.136;2024-01-07T06:22:06;3.90;55.60
3198;DHT22;1611;49.394;11.136;2024-01-07T06:24:34;3.90;55.80
3198;DHT22;1611;49.394;11.136;2024-01-07T06:27:00;4.00;55.60
3198;DHT22;1611;49.394;11.136;2024-01-07T06:29:29;3.90;54.90
3198;DHT22;1611;49.394;11.136;2024-01-07T06:31:56;4.00;55.00
3198;DHT22;1611;49.394;11.136;2024-01-07T06:34:22;3.90;54.80
3198;DHT22;1611;49.394;11.136;2024-01-07T06:36:49;4.00;54.20
3198;DHT22;1611;49.394;11.136;2024-01-07T06:39:16;3.90;54.80
3198;DHT22;1611;49.394;11.136;2024-01-07T06:41:44;3.80;54.70
3198;DHT22;1611;49.394;11.136;2024-01-07T06:44:11;3.90;54.70
3198;DHT22;1611;49.394;11.136;2024-01-07T06:46:38;3.70;55.10
3198;DHT22;1611;49.394;11.136;2024-01-07T06:49:04;3.70;55.60
3198;DHT22;1611;49.394;11.136;2024-01-07T06:51:32;3.80;55.20
3198;DHT22;1611;49.394;11.136;2024-01-07T06:53:59;3.80;55.50
3198;DHT22;1611;49.394;11.136;2024-01-07T06:56:26;3.80;55.50
3198;DHT22;1611;49.394;11.136;2024-01-07T06:58:54;3.90;55.30
3198;DHT22;1611;49.394;11.136;2024-01-07T07:01:21;3.80;55.10
3198;DHT22;1611;49.394;11.136;2024-01-07T07:03:48;3.70;54.70
3198;DHT22;1611;49.394;11.136;2024-01-07T07:06:15;3.70;54.70
3198;DHT22;1611;49.394;11.136;2024-01-07T07:08:42;3.60;54.70
3198;DHT22;1611;49.394;11.136;2024-01-07T07:11:08;3.70;55.00
3198;DHT22;1611;49.394;11.136;2024-01-07T07:13:35;3.80;55.20
3198;DHT22;1611;49.394;11.136;2024-01-07T07:16:05;3.80;55.30
3198;DHT22;1611;49.394;11.136;2024-01-07T07:18:31;3.80;54.70
3198;DHT22;1611;49.394;11.136;2024-01-07T07:20:58;3.80;54.70
3198;DHT22;1611;49.394;11.136;2024-01-07T07:23:25;3.80;55.30
3198;DHT22;1611;49.394;11.136;2024-01-07T07:25:52;3.80;54.10
3198;DHT22;1611;49.394;11.136;2024-01-07T07:28:18;3.80;54.20
3198;DHT22;1611;49.394;11.136;2024-01-07T07:30:45;3.50;54.40
3198;DHT22;1611;49.394;11.136;2024-01-07T07:33:13;3.50;55.30
3198;DHT22;1611;49.394;11.136;2024-01-07T07:35:40;3.50;55.10
3198;DHT22;1611;49.394;11.136;2024-01-07T07:38:07;3.60;55.30
3198;DHT22;1611;49.394;11.136;2024-01-07T07:40:34;3.60;55.00
3198;DHT22;1611;49.394;11.136;2024-01-07T07:43:01;3.60;54.30
3198;DHT22;1611;49.394;11.136;2024-01-07T07:45:28;3.50;54.70
3198;DHT22;1611;49.394;11.136;2024-01-07T07:47:54;3.60;54.50
3198;DHT22;1611;49.394;11.136;2024-01-07T07:50:22;3.50;54.80
3198;DHT22;1611;49.394;11.136;2024-01-07T07:52:49;3.60;55.30
3198;DHT22;1611;49.394;11.136;2024-01-07T07:55:16;3.60;54.10
3198;DHT22;1611;49.394;11.136;2024-01-07T07:57:43;3.70;53.80
3198;DHT22;1611;49.394;11.136;2024-01-07T08:00:12;3.60;53.20
3198;DHT22;1611;49.394;11.136;2024-01-07T08:02:39;3.60;53.10
3198;DHT22;1611;49.394;11.136;2024-01-07T08:05:06;3.60;53.30
3198;DHT22;1611;49.394;11.136;2024-01-07T08:07:34;3.70;52.50
3198;DHT22;1611;49.394;11.136;2024-01-07T08:10:01;3.70;53.20
3198;DHT22;1611;49.394;11.136;2024-01-07T08:12:28;3.70;52.90
3198;DHT22;1611;49.394;11.136;2024-01-07T08:14:55;3.70;52.30
3198;DHT22;1611;49.394;11.136;2024-01-07T08:17:21;3.80;52.40
3198;DHT22;1611;49.394;11.136;2024-01-07T08:19:48;3.60;52.50
3198;DHT22;1611;49.394;11.136;2024-01-07T08:22:19;3.50;52.60
3198;DHT22;1611;49.394;11.136;2024-01-07T08:24:48;3.30;53.00
3198;DHT22;1611;49.394;11.136;2024-01-07T08:27:15;3.30;53.70
3198;DHT22;1611;49.394;11.136;2024-01-07T08:29:42;3.40;57.00
3198;DHT22;1611;49.394;11.136;2024-01-07T08:32:10;3.30;53.80
3198;DHT22;1611;49.394;11.136;2024-01-07T08:34:38;3.10;53.00
3198;DHT22;1611;49.394;11.136;2024-01-07T08:37:07;3.10;53.70
3198;DHT22;1611;49.394;11.136;2024-01-07T08:39:34;3.00;53.20
3198;DHT22;1611;49.394;11.136;2024-01-07T08:42:02;3.10;54.10
3198;DHT22;1611;49.394;11.136;2024-01-07T08:44:29;3.10;53.70
3198;DHT22;1611;49.394;11.136;2024-01-07T08:46:56;3.10;53.00
3198;DHT22;1611;49.394;11.136;2024-01-07T08:49:25;2.90;53.50
3198;DHT22;1611;49.394;11.136;2024-01-07T08:51:52;2.90;54.00
3198;DHT22;1611;49.394;11.136;2024-01-07T08:54:21;2.90;53.60
3198;DHT22;1611;49.394;11.136;2024-01-07T08:56:48;3.00;53.40
3198;DHT22;1611;49.394;11.136;2024-01-07T08:59:23;3.00;53.80
3198;DHT22;1611;49.394;11.136;2024-01-07T09:01:50;2.90;53.50
3198;DHT22;1611;49.394;11.136;2024-01-07T09:04:17;3.00;53.10
3198;DHT22;1611;49.394;11.136;2024-01-07T09:06:44;2.90;53.20
3198;DHT22;1611;49.394;11.136;2024-01-07T09:09:11;2.80;53.30
3198;DHT22;1611;49.394;11.136;2024-01-07T09:11:38;2.90;53.60
3198;DHT22;1611;49.394;11.136;2024-01-07T09:14:05;2.90;53.30
3198;DHT22;1611;49.394;11.136;2024-01-07T09:16:33;2.90;53.40
3198;DHT22;1611;49.394;11.136;2024-01-07T09:19:00;2.90;53.50
3198;DHT22;1611;49.394;11.136;2024-01-07T09:21:27;2.90;53.80
3198;DHT22;1611;49.394;11.136;2024-01-07T09:23:54;3.00;53.30
3198;DHT22;1611;49.394;11.136;2024-01-07T09:26:20;3.00;53.60
3198;DHT22;1611;49.394;11.136;2024-01-07T09:28:47;3.10;53.70
3198;DHT22;1611;49.394;11.136;2024-01-07T09:31:14;3.10;52.70
3198;DHT22;1611;49.394;11.136;2024-01-07T09:33:42;3.00;52.00
3198;DHT22;1611;49.394;11.136;2024-01-07T09:36:09;3.00;52.20
3198;DHT22;1611;49.394;11.136;2024-01-07T09:38:36;2.90;52.10
3198;DHT22;1611;49.394;11.136;2024-01-07T09:41:03;3.00;53.20
3198;DHT22;1611;49.394;11.136;2024-01-07T09:43:30;3.10;53.10
3198;DHT22;1611;49.394;11.136;2024-01-07T09:45:57;3.10;52.20
3198;DHT22;1611;49.394;11.136;2024-01-07T09:48:25;3.00;52.50
3198;DHT22;1611;49.394;11.136;2024-01-07T09:50:53;3.00;52.50
3198;DHT22;1611;49.394;11.136;2024-01-07T09:53:20;2.80;52.40
3198;DHT22;1611;49.394;11.136;2024-01-07T09:55:56;2.80;52.10
3198;DHT22;1611;49.394;11.136;2024-01-07T09:58:24;2.80;52.80
3198;DHT22;1611;49.394;11.136;2024-01-07T10:00:52;2.80;52.90
3198;DHT22;1611;49.394;11.136;2024-01-07T10:03:19;2.80;52.70
3198;DHT22;1611;49.394;11.136;2024-01-07T10:05:46;2.80;52.60
3198;DHT22;1611;49.394;11.136;2024-01-07T10:08:14;2.80;53.10
3198;DHT22;1611;49.394;11.136;2024-01-07T10:10:41;2.80;52.90
3198;DHT22;1611;49.394;11.136;2024-01-07T10:13:08;2.70;53.50
3198;DHT22;1611;49.394;11.136;2024-01-07T10:15:35;2.70;53.70
3198;DHT22;1611;49.394;11.136;2024-01-07T10:18:06;2.70;52.90
3198;DHT22;1611;49.394;11.136;2024-01-07T10:20:34;2.60;53.10
3198;DHT22;1611;49.394;11.136;2024-01-07T10:23:02;2.50;53.40
3198;DHT22;1611;49.394;11.136;2024-01-07T10:25:31;2.50;53.50
3198;DHT22;1611;49.394;11.136;2024-01-07T10:27:59;2.50;53.60
3198;DHT22;1611;49.394;11.136;2024-01-07T10:30:26;2.60;53.70
3198;DHT22;1611;49.394;11.136;2024-01-07T10:32:56;2.60;52.60
3198;DHT22;1611;49.394;11.136;2024-01-07T10:35:27;2.60;53.30
3198;DHT22;1611;49.394;11.136;2024-01-07T10:37:55;2.50;52.90
3198;DHT22;1611;49.394;11.136;2024-01-07T10:40:22;2.50;52.60
3198;DHT22;1611;49.394;11.136;2024-01-07T10:42:51;2.40;52.60
3198;DHT22;1611;49.394;11.136;2024-01-07T10:45:19;2.40;53.80
3198;DHT22;1611;49.394;11.136;2024-01-07T10:47:49;2.50;53.10
3198;DHT22;1611;49.394;11.136;2024-01-07T10:50:16;2.60;52.70
3198;DHT22;1611;49.394;11.136;2024-01-07T10:52:49;2.60;52.50
3198;DHT22;1611;49.394;11.136;2024-01-07T10:55:18;2.50;52.80
3198;DHT22;1611;49.394;11.136;2024-01-07T10:57:47;2.60;52.60
3198;DHT22;1611;49.394;11.136;2024-01-07T11:00:17;2.60;52.00
3198;DHT22;1611;49.394;11.136;2024-01-07T11:02:53;2.50;52.70
3198;DHT22;1611;49.394;11.136;2024-01-07T11:05:27;2.60;52.10
3198;DHT22;1611;49.394;11.136;2024-01-07T11:08:01;2.40;52.80
3198;DHT22;1611;49.394;11.136;2024-01-07T11:10:39;2.40;53.30
3198;DHT22;1611;49.394;11.136;2024-01-07T11:13:08;2.40;52.80
3198;DHT22;1611;49.394;11.136;2024-01-07T11:15:54;2.40;53.40
3198;DHT22;1611;49.394;11.136;2024-01-07T11:18:22;2.60;52.90
3198;DHT22;1611;49.394;11.136;2024-01-07T11:20:49;2.70;52.00
3198;DHT22;1611;49.394;11.136;2024-01-07T11:23:32;2.70;51.90
3198;DHT22;1611;49.394;11.136;2024-01-07T11:26:02;2.80;51.40
3198;DHT22;1611;49.394;11.136;2024-01-07T11:28:45;2.70;51.20
3198;DHT22;1611;49.394;11.136;2024-01-07T11:31:17;2.50;52.20
3198;DHT22;1611;49.394;11.136;2024-01-07T11:33:46;2.60;52.10
3198;DHT22;1611;49.394;11.136;2024-01-07T11:36:14;2.60;51.90
3198;DHT22;1611;49.394;11.136;2024-01-07T11:38:44;2.70;51.70
3198;DHT22;1611;49.394;11.136;2024-01-07T11:41:13;2.70;52.10
3198;DHT22;1611;49.394;11.136;2024-01-07T11:43:53;2.70;50.80
3198;DHT22;1611;49.394;11.136;2024-01-07T11:46:24;2.60;51.30
3198;DHT22;1611;49.394;11.136;2024-01-07T11:48:54;2.40;51.40
3198;DHT22;1611;49.394;11.136;2024-01-07T11:51:24;2.40;52.40
3198;DHT22;1611;49.394;11.136;2024-01-07T11:53:51;2.50;52.40
3198;DHT22;1611;49.394;11.136;2024-01-07T11:56:19;2.40;51.90
3198;DHT22;1611;49.394;11.136;2024-01-07T11:58:46;2.20;52.00
3198;DHT22;1611;49.394;11.136;2024-01-07T12:01:14;2.10;52.40
3198;DHT22;1611;49.394;11.136;2024-01-07T12:03:44;2.20;53.50
3198;DHT22;1611;49.394;11.136;2024-01-07T12:06:12;2.20;52.90
3198;DHT22;1611;49.394;11.136;2024-01-07T12:08:40;2.20;53.20
3198;DHT22;1611;49.394;11.136;2024-01-07T12:11:07;2.30;52.80
3198;DHT22;1611;49.394;11.136;2024-01-07T12:13:34;2.30;52.10
3198;DHT22;1611;49.394;11.136;2024-01-07T12:16:01;2.30;53.10
3198;DHT22;1611;49.394;11.136;2024-01-07T12:18:29;2.40;52.30
3198;DHT22;1611;49.394;11.136;2024-01-07T12:20:59;2.50;51.70
3198;DHT22;1611;49.394;11.136;2024-01-07T12:23:26;2.50;51.60
3198;DHT22;1611;49.394;11.136;2024-01-07T12:25:54;2.60;51.70
3198;DHT22;1611;49.394;11.136;2024-01-07T12:28:21;2.50;51.00
3198;DHT22;1611;49.394;11.136;2024-01-07T12:30:48;2.40;51.30
3198;DHT22;1611;49.394;11.136;2024-01-07T12:33:17;2.40;51.20
3198;DHT22;1611;49.394;11.136;2024-01-07T12:35:45;2.40;51.20
3198;DHT22;1611;49.394;11.136;2024-01-07T12:38:15;2.40;50.90
3198;DHT22;1611;49.394;11.136;2024-01-07T12:40:42;2.50;50.60
3198;DHT22;1611;49.394;11.136;2024-01-07T12:43:17;2.50;50.70
3198;DHT22;1611;49.394;11.136;2024-01-07T12:45:44;2.50;50.90
3198;DHT22;1611;49.394;11.136;2024-01-07T12:48:12;2.60;50.80
3198;DHT22;1611;49.394;11.136;2024-01-07T12:50:39;2.50;49.80
3198;DHT22;1611;49.394;11.136;2024-01-07T12:53:06;2.40;49.90
3198;DHT22;1611;49.394;11.136;2024-01-07T12:55:34;2.50;50.80
3198;DHT22;1611;49.394;11.136;2024-01-07T12:58:01;2.50;50.70
3198;DHT22;1611;49.394;11.136;2024-01-07T13:00:28;2.40;49.90
3198;DHT22;1611;49.394;11.136;2024-01-07T13:02:55;2.50;50.50
3198;DHT22;1611;49.394;11.136;2024-01-07T13:05:22;2.40;50.30
3198;DHT22;1611;49.394;11.136;2024-01-07T13:07:50;2.40;51.10
3198;DHT22;1611;49.394;11.136;2024-01-07T13:10:17;2.30;50.60
3198;DHT22;1611;49.394;11.136;2024-01-07T13:12:46;2.20;50.90
3198;DHT22;1611;49.394;11.136;2024-01-07T13:15:13;2.10;50.80
3198;DHT22;1611;49.394;11.136;2024-01-07T13:17:39;2.00;50.90
3198;DHT22;1611;49.394;11.136;2024-01-07T13:20:07;2.10;51.30
3198;DHT22;1611;49.394;11.136;2024-01-07T13:22:36;2.10;51.20
3198;DHT22;1611;49.394;11.136;2024-01-07T13:25:04;2.00;50.70
3198;DHT22;1611;49.394;11.136;2024-01-07T13:27:31;2.10;51.50
3198;DHT22;1611;49.394;11.136;2024-01-07T13:30:00;2.10;50.80
3198;DHT22;1611;49.394;11.136;2024-01-07T13:32:27;2.10;50.90
3198;DHT22;1611;49.394;11.136;2024-01-07T13:34:55;2.10;50.20
3198;DHT22;1611;49.394;11.136;2024-01-07T13:37:28;2.10;50.20
3198;DHT22;1611;49.394;11.136;2024-01-07T13:39:56;2.20;49.90
3198;DHT22;1611;49.394;11.136;2024-01-07T13:42:23;2.20;49.70
3198;DHT22;1611;49.394;11.136;2024-01-07T13:44:50;2.20;49.40
3198;DHT22;1611;49.394;11.136;2024-01-07T13:47:18;2.20;48.90
3198;DHT22;1611;49.394;11.136;2024-01-07T13:49:45;2.20;48.40
3198;DHT22;1611;49.394;11.136;2024-01-07T13:52:12;2.20;48.60
3198;DHT22;1611;49.394;11.136;2024-01-07T13:54:39;2.10;49.20
3198;DHT22;1611;49.394;11.136;2024-01-07T13:57:06;2.00;48.30
3198;DHT22;1611;49.394;11.136;2024-01-07T13:59:33;2.00;48.60
3198;DHT22;1611;49.394;11.136;2024-01-07T14:02:01;2.10;49.30
3198;DHT22;1611;49.394;11.136;2024-01-07T14:04:29;2.10;48.70
3198;DHT22;1611;49.394;11.136;2024-01-07T14:06:57;2.20;48.90
3198;DHT22;1611;49.394;11.136;2024-01-07T14:09:24;2.10;48.10
3198;DHT22;1611;49.394;11.136;2024-01-07T14:11:51;2.30;47.50
3198;DHT22;1611;49.394;11.136;2024-01-07T14:14:18;2.20;47.00
3198;DHT22;1611;49.394;11.136;2024-01-07T14:16:45;2.20;47.10
3198;DHT22;1611;49.394;11.136;2024-01-07T14:19:12;2.20;47.50
3198;DHT22;1611;49.394;11.136;2024-01-07T14:21:43;2.20;47.10
3198;DHT22;1611;49.394;11.136;2024-01-07T14:24:10;2.10;47.00
3198;DHT22;1611;49.394;11.136;2024-01-07T14:26:43;2.10;47.20
3198;DHT22;1611;49.394;11.136;2024-01-07T14:29:10;2.10;47.20
3198;DHT22;1611;49.394;11.136;2024-01-07T14:31:39;2.00;47.00
3198;DHT22;1611;49.394;11.136;2024-01-07T14:34:05;2.00;47.40
3198;DHT22;1611;49.394;11.136;2024-01-07T14:36:32;2.00;47.40
3198;DHT22;1611;49.394;11.136;2024-01-07T14:39:02;2.00;47.00
3198;DHT22;1611;49.394;11.136;2024-01-07T14:41:29;1.90;47.70
3198;DHT22;1611;49.394;11.136;2024-01-07T14:43:56;2.00;47.40
3198;DHT22;1611;49.394;11.136;2024-01-07T14:46:23;1.90;47.90
3198;DHT22;1611;49.394;11.136;2024-01-07T14:48:50;1.90;48.10
3198;DHT22;1611;49.394;11.136;2024-01-07T14:51:20;2.00;48.60
3198;DHT22;1611;49.394;11.136;2024-01-07T14:53:47;2.00;48.00
3198;DHT22;1611;49.394;11.136;2024-01-07T14:56:16;2.00;47.60
3198;DHT22;1611;49.394;11.136;2024-01-07T14:58:43;1.90;46.30
3198;DHT22;1611;49.394;11.136;2024-01-07T15:01:10;1.80;47.20
3198;DHT22;1611;49.394;11.136;2024-01-07T15:03:37;1.90;48.00
3198;DHT22;1611;49.394;11.136;2024-01-07T15:06:07;1.80;48.50
3198;DHT22;1611;49.394;11.136;2024-01-07T15:08:34;1.80;47.80
3198;DHT22;1611;49.394;11.136;2024-01-07T15:11:01;1.80;47.50
3198;DHT22;1611;49.394;11.136;2024-01-07T15:13:30;1.80;47.10
3198;DHT22;1611;49.394;11.136;2024-01-07T15:15:57;1.80;46.50
3198;DHT22;1611;49.394;11.136;2024-01-07T15:18:26;1.80;46.60
3198;DHT22;1611;49.394;11.136;2024-01-07T15:20:53;1.80;47.30
3198;DHT22;1611;49.394;11.136;2024-01-07T15:23:20;1.80;47.20
3198;DHT22;1611;49.394;11.136;2024-01-07T15:25:47;1.80;47.40
3198;DHT22;1611;49.394;11.136;2024-01-07T15:28:14;1.80;46.70
3198;DHT22;1611;49.394;11.136;2024-01-07T15:30:43;1.80;46.30
3198;DHT22;1611;49.394;11.136;2024-01-07T15:33:10;1.70;46.10
3198;DHT22;1611;49.394;11.136;2024-01-07T15:35:37;1.70;46.40
3198;DHT22;1611;49.394;11.136;2024-01-07T15:38:04;1.70;46.60
3198;DHT22;1611;49.394;11.136;2024-01-07T15:40:31;1.80;45.80
3198;DHT22;1611;49.394;11.136;2024-01-07T15:43:00;1.70;46.10
3198;DHT22;1611;49.394;11.136;2024-01-07T15:45:27;1.60;46.40
3198;DHT22;1611;49.394;11.136;2024-01-07T15:47:55;1.70;46.60
3198;DHT22;1611;49.394;11.136;2024-01-07T15:50:22;1.60;45.60
3198;DHT22;1611;49.394;11.136;2024-01-07T15:52:49;1.60;46.90
3198;DHT22;1611;49.394;11.136;2024-01-07T15:55:16;1.50;46.70
3198;DHT22;1611;49.394;11.136;2024-01-07T15:57:44;1.30;47.20
3198;DHT22;1611;49.394;11.136;2024-01-07T16:00:13;1.40;48.10
3198;DHT22;1611;49.394;11.136;2024-01-07T16:02:40;1.30;47.00
3198;DHT22;1611;49.394;11.136;2024-01-07T16:05:08;1.30;46.80